sensor_id;sensor_type;location;lat;lon;timestamp;temperature;humidity
28177;DHT22;15461;41.652;9.378;2023-12-20T00:02:14;7.60;99.90
28177;DHT22;15461;41.652;9.378;2023-12-20T00:04:40;7.60;99.90
28177;DHT22;15461;41.652;9.378;2023-12-20T00:07:06;7.60;99.90
28177;DHT22;15461;41.652;9.378;2023-12-20T00:09:31;7.60;99.90
28177;DHT22;15461;41.652;9.378;2023-12-20T00:11:57;7.70;99.90
28177;DHT22;15461;41.652;9.378;2023-12-20T00:14:23;7.70;99.90
28177;DHT22;15461;41.652;9.378;2023-12-20T00:16:49;7.70;99.90
28177;DHT22;15461;41.652;9.378;2023-12-20T00:19:14;7.80;99.90
28177;DHT22;15461;41.652;9.378;2023-12-20T00:21:40;7.70;99.90
28177;DHT22;15461;41.652;9.378;2023-12-20T00:24:06;7.70;99.90
28177;DHT22;15461;41.652;9.378;2023-12-20T00:26:32;7.70;99.90
28177;DHT22;15461;41.652;9.378;2023-12-20T00:28:57;7.70;99.90
28177;DHT22;15461;41.652;9.378;2023-12-20T00:31:23;7.70;99.90
28177;DHT22;15461;41.652;9.378;2023-12-20T00:33:49;7.70;99.90
28177;DHT22;15461;41.652;9.378;2023-12-20T00:36:15;7.60;99.90
28177;DHT22;15461;41.652;9.378;2023-12-20T00:38:40;7.60;99.90
28177;DHT22;15461;41.652;9.378;2023-12-20T00:41:06;7.50;99.90
28177;DHT22;15461;41.652;9.378;2023-12-20T00:43:32;7.50;99.90
28177;DHT22;15461;41.652;9.378;2023-12-20T00:45:58;7.50;99.90
28177;DHT22;15461;41.652;9.378;2023-12-20T00:48:25;7.40;99.90
28177;DHT22;15461;41.652;9.378;2023-12-20T00:50:52;7.30;99.90
28177;DHT22;15461;41.652;9.378;2023-12-20T00:53:18;7.30;99.90
28177;DHT22;15461;41.652;9.378;2023-12-20T00:55:45;7.30;99.90
28177;DHT22;15461;41.652;9.378;2023-12-20T00:58:12;7.20;99.90
28177;DHT22;15461;41.652;9.378;2023-12-20T01:00:37;7.10;99.90
28177;DHT22;15461;41.652;9.378;2023-12-20T01:03:03;7.10;99.90
28177;DHT22;15461;41.652;9.378;2023-12-20T01:05:29;7.00;99.90
28177;DHT22;15461;41.652;9.378;2023-12-20T01:07:55;6.90;99.90
28177;DHT22;15461;41.652;9.378;2023-12-20T01:10:20;6.80;99.90
28177;DHT22;15461;41.652;9.378;2023-12-20T01:12:47;6.70;99.90
28177;DHT22;15461;41.652;9.378;2023-12-20T01:15:13;6.60;99.90
28177;DHT22;15461;41.652;9.378;2023-12-20T01:17:39;6.60;99.90
28177;DHT22;15461;41.652;9.378;2023-12-20T01:20:05;6.50;99.90
28177;DHT22;15461;41.652;9.378;2023-12-20T01:22:31;6.50;99.90
28177;DHT22;15461;41.652;9.378;2023-12-20T01:24:57;6.40;99.90
28177;DHT22;15461;41.652;9.378;2023-12-20T01:27:23;6.40;99.90
28177;DHT22;15461;41.652;9.378;2023-12-20T01:29:48;6.30;99.90
28177;DHT22;15461;41.652;9.378;2023-12-20T01:32:14;6.30;99.90
28177;DHT22;15461;41.652;9.378;2023-12-20T01:34:40;6.30;99.90
28177;DHT22;15461;41.652;9.378;2023-12-20T01:37:06;6.20;99.90
28177;DHT22;15461;41.652;9.378;2023-12-20T01:39:32;6.20;99.90
28177;DHT22;15461;41.652;9.378;2023-12-20T01:41:57;6.20;99.90
28177;DHT22;15461;41.652;9.378;2023-12-20T01:44:23;6.10;99.90
28177;DHT22;15461;41.652;9.378;2023-12-20T01:46:49;6.10;99.90
28177;DHT22;15461;41.652;9.378;2023-12-20T01:49:15;6.00;99.90
28177;DHT22;15461;41.652;9.378;2023-12-20T01:51:41;6.00;99.90
28177;DHT22;15461;41.652;9.378;2023-12-20T01:54:08;5.90;99.90
28177;DHT22;15461;41.652;9.378;2023-12-20T01:56:34;5.90;99.90
28177;DHT22;15461;41.652;9.378;2023-12-20T01:59:00;5.80;99.90
28177;DHT22;15461;41.652;9.378;2023-12-20T02:01:26;5.80;99.90
28177;DHT22;15461;41.652;9.378;2023-12-20T02:03:54;5.70;99.90
28177;DHT22;15461;41.652;9.378;2023-12-20T02:06:21;5.60;99.90
28177;DHT22;15461;41.652;9.378;2023-12-20T02:08:49;5.60;99.90
28177;DHT22;15461;41.652;9.378;2023-12-20T02:11:16;5.60;99.90
28177;DHT22;15461;41.652;9.378;2023-12-20T02:13:41;5.50;99.90
28177;DHT22;15461;41.652;9.378;2023-12-20T02:16:07;5.50;99.90
28177;DHT22;15461;41.652;9.378;2023-12-20T02:18:33;5.50;99.90
28177;DHT22;15461;41.652;9.378;2023-12-20T02:20:59;5.40;99.90
28177;DHT22;15461;41.652;9.378;2023-12-20T02:23:25;5.40;99.90
28177;DHT22;15461;41.652;9.378;2023-12-20T02:25:51;5.30;99.90
28177;DHT22;15461;41.652;9.378;2023-12-20T02:28:16;5.30;99.90
28177;DHT22;15461;41.652;9.378;2023-12-20T02:30:42;5.20;99.90
28177;DHT22;15461;41.652;9.378;2023-12-20T02:33:10;5.10;99.90
28177;DHT22;15461;41.652;9.378;2023-12-20T02:35:37;5.10;99.90
28177;DHT22;15461;41.652;9.378;2023-12-20T02:38:03;5.00;99.90
28177;DHT22;15461;41.652;9.378;2023-12-20T02:40:29;5.10;99.90
28177;DHT22;15461;41.652;9.378;2023-12-20T02:42:54;5.00;99.90
28177;DHT22;15461;41.652;9.378;2023-12-20T02:45:20;5.00;99.90
28177;DHT22;15461;41.652;9.378;2023-12-20T02:47:46;5.00;99.90
28177;DHT22;15461;41.652;9.378;2023-12-20T02:50:12;4.90;99.90
28177;DHT22;15461;41.652;9.378;2023-12-20T02:52:37;4.90;99.90
28177;DHT22;15461;41.652;9.378;2023-12-20T02:55:03;4.90;99.90
28177;DHT22;15461;41.652;9.378;2023-12-20T02:57:29;4.90;99.90
28177;DHT22;15461;41.652;9.378;2023-12-20T02:59:55;4.90;99.90
28177;DHT22;15461;41.652;9.378;2023-12-20T03:02:21;4.90;99.90
28177;DHT22;15461;41.652;9.378;2023-12-20T03:04:46;4.80;99.90
28177;DHT22;15461;41.652;9.378;2023-12-20T03:07:12;4.80;99.90
28177;DHT22;15461;41.652;9.378;2023-12-20T03:09:38;4.80;99.90
28177;DHT22;15461;41.652;9.378;2023-12-20T03:12:04;4.80;99.90
28177;DHT22;15461;41.652;9.378;2023-12-20T03:14:30;4.80;99.90
28177;DHT22;15461;41.652;9.378;2023-12-20T03:16:55;4.70;99.90
28177;DHT22;15461;41.652;9.378;2023-12-20T03:19:21;4.70;99.90
28177;DHT22;15461;41.652;9.378;2023-12-20T03:21:47;4.70;99.90
28177;DHT22;15461;41.652;9.378;2023-12-20T03:24:13;4.70;99.90
28177;DHT22;15461;41.652;9.378;2023-12-20T03:26:38;4.70;99.90
28177;DHT22;15461;41.652;9.378;2023-12-20T03:29:04;4.60;99.90
28177;DHT22;15461;41.652;9.378;2023-12-20T03:31:30;4.60;99.90
28177;DHT22;15461;41.652;9.378;2023-12-20T03:33:55;4.60;99.90
28177;DHT22;15461;41.652;9.378;2023-12-20T03:36:21;4.60;99.90
28177;DHT22;15461;41.652;9.378;2023-12-20T03:38:47;4.60;99.90
28177;DHT22;15461;41.652;9.378;2023-12-20T03:41:13;4.50;99.90
28177;DHT22;15461;41.652;9.378;2023-12-20T03:43:39;4.50;99.90
28177;DHT22;15461;41.652;9.378;2023-12-20T03:46:04;4.50;99.90
28177;DHT22;15461;41.652;9.378;2023-12-20T03:48:31;4.50;99.90
28177;DHT22;15461;41.652;9.378;2023-12-20T03:50:57;4.50;99.90
28177;DHT22;15461;41.652;9.378;2023-12-20T03:53:22;4.40;99.90
28177;DHT22;15461;41.652;9.378;2023-12-20T03:55:48;4.40;99.90
28177;DHT22;15461;41.652;9.378;2023-12-20T03:58:14;4.40;99.90
28177;DHT22;15461;41.652;9.378;2023-12-20T04:00:40;4.50;99.90
28177;DHT22;15461;41.652;9.378;2023-12-20T04:03:06;4.40;99.90
28177;DHT22;15461;41.652;9.378;2023-12-20T04:05:32;4.40;99.90
28177;DHT22;15461;41.652;9.378;2023-12-20T04:07:59;4.40;99.90
28177;DHT22;15461;41.652;9.378;2023-12-20T04:10:25;4.40;99.90
28177;DHT22;15461;41.652;9.378;2023-12-20T04:12:50;4.40;99.90
28177;DHT22;15461;41.652;9.378;2023-12-20T04:15:16;4.40;99.90
28177;DHT22;15461;41.652;9.378;2023-12-20T04:17:42;4.40;99.90
28177;DHT22;15461;41.652;9.378;2023-12-20T04:20:08;4.40;99.90
28177;DHT22;15461;41.652;9.378;2023-12-20T04:22:34;4.40;99.90
28177;DHT22;15461;41.652;9.378;2023-12-20T04:24:59;4.40;99.90
28177;DHT22;15461;41.652;9.378;2023-12-20T04:27:25;4.40;99.90
28177;DHT22;15461;41.652;9.378;2023-12-20T04:29:51;4.40;99.90
28177;DHT22;15461;41.652;9.378;2023-12-20T04:32:16;4.40;99.90
28177;DHT22;15461;41.652;9.378;2023-12-20T04:34:42;4.40;99.90
28177;DHT22;15461;41.652;9.378;2023-12-20T04:37:08;4.50;99.90
28177;DHT22;15461;41.652;9.378;2023-12-20T04:39:34;4.70;99.90
28177;DHT22;15461;41.652;9.378;2023-12-20T04:41:59;4.70;99.90
28177;DHT22;15461;41.652;9.378;2023-12-20T04:44:25;4.80;99.90
28177;DHT22;15461;41.652;9.378;2023-12-20T04:46:52;4.80;99.90
28177;DHT22;15461;41.652;9.378;2023-12-20T04:49:18;4.80;99.90
28177;DHT22;15461;41.652;9.378;2023-12-20T04:51:43;4.90;99.90
28177;DHT22;15461;41.652;9.378;2023-12-20T04:54:09;4.90;99.90
28177;DHT22;15461;41.652;9.378;2023-12-20T04:56:36;4.90;99.90
28177;DHT22;15461;41.652;9.378;2023-12-20T04:59:01;5.00;99.90
28177;DHT22;15461;41.652;9.378;2023-12-20T05:01:27;5.00;99.90
28177;DHT22;15461;41.652;9.378;2023-12-20T05:03:53;5.00;99.90
28177;DHT22;15461;41.652;9.378;2023-12-20T05:06:19;5.00;99.90
28177;DHT22;15461;41.652;9.378;2023-12-20T05:08:45;5.00;99.90
28177;DHT22;15461;41.652;9.378;2023-12-20T05:11:10;5.00;99.90
28177;DHT22;15461;41.652;9.378;2023-12-20T05:13:38;5.00;99.90
28177;DHT22;15461;41.652;9.378;2023-12-20T05:16:04;5.00;99.90
28177;DHT22;15461;41.652;9.378;2023-12-20T05:18:30;5.00;99.90
28177;DHT22;15461;41.652;9.378;2023-12-20T05:20:56;5.00;99.90
28177;DHT22;15461;41.652;9.378;2023-12-20T05:23:22;5.00;99.90
28177;DHT22;15461;41.652;9.378;2023-12-20T05:25:48;5.00;99.90
28177;DHT22;15461;41.652;9.378;2023-12-20T05:28:15;5.00;99.90
28177;DHT22;15461;41.652;9.378;2023-12-20T05:30:41;4.90;99.90
28177;DHT22;15461;41.652;9.378;2023-12-20T05:33:06;4.90;99.90
28177;DHT22;15461;41.652;9.378;2023-12-20T05:35:32;4.90;99.90
28177;DHT22;15461;41.652;9.378;2023-12-20T05:37:58;4.80;99.90
28177;DHT22;15461;41.652;9.378;2023-12-20T05:40:24;4.80;99.90
28177;DHT22;15461;41.652;9.378;2023-12-20T05:42:49;4.80;99.90
28177;DHT22;15461;41.652;9.378;2023-12-20T05:45:15;4.80;99.90
28177;DHT22;15461;41.652;9.378;2023-12-20T05:47:41;4.80;99.90
28177;DHT22;15461;41.652;9.378;2023-12-20T05:50:07;4.70;99.90
28177;DHT22;15461;41.652;9.378;2023-12-20T05:52:33;4.70;99.90
28177;DHT22;15461;41.652;9.378;2023-12-20T05:54:59;4.70;99.90
28177;DHT22;15461;41.652;9.378;2023-12-20T05:57:27;4.70;99.90
28177;DHT22;15461;41.652;9.378;2023-12-20T05:59:52;4.70;99.90
28177;DHT22;15461;41.652;9.378;2023-12-20T06:02:18;4.70;99.90
28177;DHT22;15461;41.652;9.378;2023-12-20T06:04:44;4.70;99.90
28177;DHT22;15461;41.652;9.378;2023-12-20T06:07:14;4.70;99.90
28177;DHT22;15461;41.652;9.378;2023-12-20T06:09:40;4.60;99.90
28177;DHT22;15461;41.652;9.378;2023-12-20T06:12:07;4.60;99.90
28177;DHT22;15461;41.652;9.378;2023-12-20T06:14:34;4.60;99.90
28177;DHT22;15461;41.652;9.378;2023-12-20T06:17:00;4.60;99.90
28177;DHT22;15461;41.652;9.378;2023-12-20T06:19:27;4.60;99.90
28177;DHT22;15461;41.652;9.378;2023-12-20T06:21:53;4.50;99.90
28177;DHT22;15461;41.652;9.378;2023-12-20T06:24:19;4.50;99.90
28177;DHT22;15461;41.652;9.378;2023-12-20T06:26:45;4.60;99.90
28177;DHT22;15461;41.652;9.378;2023-12-20T06:29:10;4.50;99.90
28177;DHT22;15461;41.652;9.378;2023-12-20T06:31:36;4.60;99.90
28177;DHT22;15461;41.652;9.378;2023-12-20T06:34:02;4.50;99.90
28177;DHT22;15461;41.652;9.378;2023-12-20T06:36:28;4.50;99.90
28177;DHT22;15461;41.652;9.378;2023-12-20T06:38:54;4.50;99.90
28177;DHT22;15461;41.652;9.378;2023-12-20T06:41:20;4.50;99.90
28177;DHT22;15461;41.652;9.378;2023-12-20T06:43:46;4.50;99.90
28177;DHT22;15461;41.652;9.378;2023-12-20T06:46:12;4.50;99.90
28177;DHT22;15461;41.652;9.378;2023-12-20T06:48:39;4.50;99.90
28177;DHT22;15461;41.652;9.378;2023-12-20T06:51:05;4.50;99.90
28177;DHT22;15461;41.652;9.378;2023-12-20T06:53:31;4.50;99.90
28177;DHT22;15461;41.652;9.378;2023-12-20T06:55:57;4.50;99.90
28177;DHT22;15461;41.652;9.378;2023-12-20T06:58:23;4.50;99.90
28177;DHT22;15461;41.652;9.378;2023-12-20T07:00:49;4.50;99.90
28177;DHT22;15461;41.652;9.378;2023-12-20T07:03:15;4.50;99.90
28177;DHT22;15461;41.652;9.378;2023-12-20T07:05:42;4.60;99.90
28177;DHT22;15461;41.652;9.378;2023-12-20T07:08:07;4.60;99.90
28177;DHT22;15461;41.652;9.378;2023-12-20T07:10:33;4.60;99.90
28177;DHT22;15461;41.652;9.378;2023-12-20T07:12:59;4.60;99.90
28177;DHT22;15461;41.652;9.378;2023-12-20T07:15:25;4.60;99.90
28177;DHT22;15461;41.652;9.378;2023-12-20T07:17:52;4.70;99.90
28177;DHT22;15461;41.652;9.378;2023-12-20T07:20:18;4.70;99.90
28177;DHT22;15461;41.652;9.378;2023-12-20T07:22:44;4.70;99.90
28177;DHT22;15461;41.652;9.378;2023-12-20T07:25:09;4.80;99.90
28177;DHT22;15461;41.652;9.378;2023-12-20T07:27:36;4.80;99.90
28177;DHT22;15461;41.652;9.378;2023-12-20T07:30:02;4.90;99.90
28177;DHT22;15461;41.652;9.378;2023-12-20T07:32:27;5.00;99.90
28177;DHT22;15461;41.652;9.378;2023-12-20T07:34:53;5.00;99.90
28177;DHT22;15461;41.652;9.378;2023-12-20T07:37:20;5.10;99.90
28177;DHT22;15461;41.652;9.378;2023-12-20T07:39:46;5.20;99.90
28177;DHT22;15461;41.652;9.378;2023-12-20T07:42:12;5.30;99.90
28177;DHT22;15461;41.652;9.378;2023-12-20T07:44:38;5.40;99.90
28177;DHT22;15461;41.652;9.378;2023-12-20T07:47:04;5.50;99.90
28177;DHT22;15461;41.652;9.378;2023-12-20T07:49:30;5.60;99.90
28177;DHT22;15461;41.652;9.378;2023-12-20T07:51:57;5.70;99.90
28177;DHT22;15461;41.652;9.378;2023-12-20T07:54:23;5.80;99.90
28177;DHT22;15461;41.652;9.378;2023-12-20T07:56:49;5.90;99.90
28177;DHT22;15461;41.652;9.378;2023-12-20T07:59:14;6.00;99.90
28177;DHT22;15461;41.652;9.378;2023-12-20T08:01:40;6.20;99.90
28177;DHT22;15461;41.652;9.378;2023-12-20T08:04:06;6.30;99.90
28177;DHT22;15461;41.652;9.378;2023-12-20T08:06:32;6.40;99.90
28177;DHT22;15461;41.652;9.378;2023-12-20T08:08:57;6.60;99.90
28177;DHT22;15461;41.652;9.378;2023-12-20T08:11:23;6.70;99.90
28177;DHT22;15461;41.652;9.378;2023-12-20T08:13:49;6.90;99.90
28177;DHT22;15461;41.652;9.378;2023-12-20T08:16:15;7.00;99.90
28177;DHT22;15461;41.652;9.378;2023-12-20T08:18:43;7.20;99.90
28177;DHT22;15461;41.652;9.378;2023-12-20T08:21:09;7.40;99.90
28177;DHT22;15461;41.652;9.378;2023-12-20T08:23:35;7.60;99.90
28177;DHT22;15461;41.652;9.378;2023-12-20T08:26:07;7.70;99.90
28177;DHT22;15461;41.652;9.378;2023-12-20T08:28:34;7.90;99.90
28177;DHT22;15461;41.652;9.378;2023-12-20T08:31:00;8.10;99.90
28177;DHT22;15461;41.652;9.378;2023-12-20T08:33:26;8.30;99.90
28177;DHT22;15461;41.652;9.378;2023-12-20T08:35:52;8.50;99.90
28177;DHT22;15461;41.652;9.378;2023-12-20T08:38:17;8.60;99.90
28177;DHT22;15461;41.652;9.378;2023-12-20T08:40:44;8.80;99.90
28177;DHT22;15461;41.652;9.378;2023-12-20T08:43:10;8.90;99.90
28177;DHT22;15461;41.652;9.378;2023-12-20T08:45:36;9.10;99.90
28177;DHT22;15461;41.652;9.378;2023-12-20T08:48:02;9.20;99.90
28177;DHT22;15461;41.652;9.378;2023-12-20T08:50:29;9.40;99.90
28177;DHT22;15461;41.652;9.378;2023-12-20T08:52:55;9.50;99.90
28177;DHT22;15461;41.652;9.378;2023-12-20T08:55:21;9.60;99.90
28177;DHT22;15461;41.652;9.378;2023-12-20T08:57:47;9.70;99.90
28177;DHT22;15461;41.652;9.378;2023-12-20T09:00:13;9.90;99.90
28177;DHT22;15461;41.652;9.378;2023-12-20T09:02:39;10.10;99.90
28177;DHT22;15461;41.652;9.378;2023-12-20T09:05:05;10.30;99.90
28177;DHT22;15461;41.652;9.378;2023-12-20T09:07:31;10.50;99.90
28177;DHT22;15461;41.652;9.378;2023-12-20T09:09:58;10.60;99.90
28177;DHT22;15461;41.652;9.378;2023-12-20T09:12:24;10.80;99.90
28177;DHT22;15461;41.652;9.378;2023-12-20T09:14:51;11.00;99.90
28177;DHT22;15461;41.652;9.378;2023-12-20T09:17:17;11.10;99.90
28177;DHT22;15461;41.652;9.378;2023-12-20T09:19:44;11.10;99.90
28177;DHT22;15461;41.652;9.378;2023-12-20T09:22:10;11.20;99.90
28177;DHT22;15461;41.652;9.378;2023-12-20T09:24:36;11.30;99.90
28177;DHT22;15461;41.652;9.378;2023-12-20T09:27:02;11.40;99.90
28177;DHT22;15461;41.652;9.378;2023-12-20T09:29:28;11.50;99.90
28177;DHT22;15461;41.652;9.378;2023-12-20T09:31:54;11.60;99.90
28177;DHT22;15461;41.652;9.378;2023-12-20T09:34:20;11.70;99.90
28177;DHT22;15461;41.652;9.378;2023-12-20T09:36:47;11.80;99.90
28177;DHT22;15461;41.652;9.378;2023-12-20T09:39:13;11.80;99.90
28177;DHT22;15461;41.652;9.378;2023-12-20T09:41:44;11.90;99.90
28177;DHT22;15461;41.652;9.378;2023-12-20T09:44:18;11.90;99.90
28177;DHT22;15461;41.652;9.378;2023-12-20T09:46:45;12.00;99.90
28177;DHT22;15461;41.652;9.378;2023-12-20T09:49:14;12.10;99.90
28177;DHT22;15461;41.652;9.378;2023-12-20T09:51:43;12.10;99.90
28177;DHT22;15461;41.652;9.378;2023-12-20T09:54:09;12.20;99.90
28177;DHT22;15461;41.652;9.378;2023-12-20T09:56:35;12.30;99.90
28177;DHT22;15461;41.652;9.378;2023-12-20T09:59:02;12.30;99.90
28177;DHT22;15461;41.652;9.378;2023-12-20T10:01:28;12.40;99.90
28177;DHT22;15461;41.652;9.378;2023-12-20T10:03:55;12.40;99.90
28177;DHT22;15461;41.652;9.378;2023-12-20T10:06:22;12.40;99.90
28177;DHT22;15461;41.652;9.378;2023-12-20T10:08:47;12.40;99.90
28177;DHT22;15461;41.652;9.378;2023-12-20T10:11:14;12.40;99.90
28177;DHT22;15461;41.652;9.378;2023-12-20T10:13:40;12.30;99.90
28177;DHT22;15461;41.652;9.378;2023-12-20T10:16:07;12.20;99.90
28177;DHT22;15461;41.652;9.378;2023-12-20T10:18:33;12.10;99.90
28177;DHT22;15461;41.652;9.378;2023-12-20T10:21:00;12.10;99.90
28177;DHT22;15461;41.652;9.378;2023-12-20T10:23:26;12.10;99.90
28177;DHT22;15461;41.652;9.378;2023-12-20T10:25:58;12.10;99.90
28177;DHT22;15461;41.652;9.378;2023-12-20T10:28:25;12.40;99.90
28177;DHT22;15461;41.652;9.378;2023-12-20T10:30:54;12.60;99.90
28177;DHT22;15461;41.652;9.378;2023-12-20T10:33:27;12.70;99.90
28177;DHT22;15461;41.652;9.378;2023-12-20T10:35:55;12.90;99.90
28177;DHT22;15461;41.652;9.378;2023-12-20T10:38:21;13.10;99.90
28177;DHT22;15461;41.652;9.378;2023-12-20T10:40:47;13.10;99.90
28177;DHT22;15461;41.652;9.378;2023-12-20T10:43:15;13.10;99.90
28177;DHT22;15461;41.652;9.378;2023-12-20T10:45:44;13.00;99.90
28177;DHT22;15461;41.652;9.378;2023-12-20T10:48:10;13.00;99.90
28177;DHT22;15461;41.652;9.378;2023-12-20T10:50:38;12.90;99.90
28177;DHT22;15461;41.652;9.378;2023-12-20T10:53:04;12.90;99.90
28177;DHT22;15461;41.652;9.378;2023-12-20T10:55:30;12.90;99.90
28177;DHT22;15461;41.652;9.378;2023-12-20T10:58:06;12.80;99.90
28177;DHT22;15461;41.652;9.378;2023-12-20T11:00:35;12.80;99.90
28177;DHT22;15461;41.652;9.378;2023-12-20T11:03:01;12.80;99.90
28177;DHT22;15461;41.652;9.378;2023-12-20T11:11:04;12.90;99.90
28177;DHT22;15461;41.652;9.378;2023-12-20T11:13:37;12.90;99.90
28177;DHT22;15461;41.652;9.378;2023-12-20T11:16:05;13.00;99.90
28177;DHT22;15461;41.652;9.378;2023-12-20T11:18:33;13.00;99.90
28177;DHT22;15461;41.652;9.378;2023-12-20T11:21:03;13.00;99.90
28177;DHT22;15461;41.652;9.378;2023-12-20T11:23:30;13.00;99.90
28177;DHT22;15461;41.652;9.378;2023-12-20T11:25:58;13.10;99.90
28177;DHT22;15461;41.652;9.378;2023-12-20T11:28:26;13.20;99.90
28177;DHT22;15461;41.652;9.378;2023-12-20T11:30:56;13.30;99.90
28177;DHT22;15461;41.652;9.378;2023-12-20T11:33:26;13.40;99.90
28177;DHT22;15461;41.652;9.378;2023-12-20T11:35:55;13.40;99.90
28177;DHT22;15461;41.652;9.378;2023-12-20T11:38:21;13.50;99.90
28177;DHT22;15461;41.652;9.378;2023-12-20T11:40:51;13.60;99.90
28177;DHT22;15461;41.652;9.378;2023-12-20T11:43:32;13.60;99.90
28177;DHT22;15461;41.652;9.378;2023-12-20T11:46:07;13.60;99.90
28177;DHT22;15461;41.652;9.378;2023-12-20T11:48:38;13.70;99.90
28177;DHT22;15461;41.652;9.378;2023-12-20T11:51:10;13.70;99.90
28177;DHT22;15461;41.652;9.378;2023-12-20T11:53:37;13.70;99.90
28177;DHT22;15461;41.652;9.378;2023-12-20T11:56:04;13.60;99.90
28177;DHT22;15461;41.652;9.378;2023-12-20T11:58:29;13.60;99.90
28177;DHT22;15461;41.652;9.378;2023-12-20T12:00:56;13.60;99.90
28177;DHT22;15461;41.652;9.378;2023-12-20T12:03:22;13.50;99.90
28177;DHT22;15461;41.652;9.378;2023-12-20T12:05:49;13.50;99.90
28177;DHT22;15461;41.652;9.378;2023-12-20T12:08:16;13.40;99.90
28177;DHT22;15461;41.652;9.378;2023-12-20T12:10:43;13.40;99.90
28177;DHT22;15461;41.652;9.378;2023-12-20T12:13:09;13.30;99.90
28177;DHT22;15461;41.652;9.378;2023-12-20T12:15:36;13.30;99.90
28177;DHT22;15461;41.652;9.378;2023-12-20T12:18:02;13.30;99.90
28177;DHT22;15461;41.652;9.378;2023-12-20T12:20:28;13.30;99.90
28177;DHT22;15461;41.652;9.378;2023-12-20T12:23:05;13.30;99.90
28177;DHT22;15461;41.652;9.378;2023-12-20T12:25:34;13.30;99.90
28177;DHT22;15461;41.652;9.378;2023-12-20T12:28:01;13.30;99.90
28177;DHT22;15461;41.652;9.378;2023-12-20T12:30:27;13.30;99.90
28177;DHT22;15461;41.652;9.378;2023-12-20T12:32:55;13.30;99.90
28177;DHT22;15461;41.652;9.378;2023-12-20T12:35:21;13.30;99.90
28177;DHT22;15461;41.652;9.378;2023-12-20T12:37:47;13.30;99.90
28177;DHT22;15461;41.652;9.378;2023-12-20T12:40:15;13.30;99.90
28177;DHT22;15461;41.652;9.378;2023-12-20T12:42:42;13.40;99.90
28177;DHT22;15461;41.652;9.378;2023-12-20T12:45:09;13.40;99.90
28177;DHT22;15461;41.652;9.378;2023-12-20T12:47:35;13.40;99.90
28177;DHT22;15461;41.652;9.378;2023-12-20T12:50:02;13.40;99.90
28177;DHT22;15461;41.652;9.378;2023-12-20T12:52:28;13.40;99.90
28177;DHT22;15461;41.652;9.378;2023-12-20T12:54:53;13.40;99.90
28177;DHT22;15461;41.652;9.378;2023-12-20T12:57:19;13.40;99.90
28177;DHT22;15461;41.652;9.378;2023-12-20T12:59:46;13.30;99.90
28177;DHT22;15461;41.652;9.378;2023-12-20T13:02:15;13.30;99.90
28177;DHT22;15461;41.652;9.378;2023-12-20T13:04:42;13.30;99.90
28177;DHT22;15461;41.652;9.378;2023-12-20T13:07:09;13.20;99.90
28177;DHT22;15461;41.652;9.378;2023-12-20T13:09:38;13.20;99.90
28177;DHT22;15461;41.652;9.378;2023-12-20T13:12:06;13.20;99.90
28177;DHT22;15461;41.652;9.378;2023-12-20T13:14:33;13.20;99.90
28177;DHT22;15461;41.652;9.378;2023-12-20T13:17:01;13.20;99.90
28177;DHT22;15461;41.652;9.378;2023-12-20T13:19:26;13.10;99.90
28177;DHT22;15461;41.652;9.378;2023-12-20T13:21:53;13.10;99.90
28177;DHT22;15461;41.652;9.378;2023-12-20T13:24:19;13.10;99.90
28177;DHT22;15461;41.652;9.378;2023-12-20T13:26:44;13.10;99.90
28177;DHT22;15461;41.652;9.378;2023-12-20T13:29:10;13.10;99.90
28177;DHT22;15461;41.652;9.378;2023-12-20T13:31:36;13.10;99.90
28177;DHT22;15461;41.652;9.378;2023-12-20T13:34:03;13.00;99.90
28177;DHT22;15461;41.652;9.378;2023-12-20T13:36:28;13.00;99.90
28177;DHT22;15461;41.652;9.378;2023-12-20T13:38:54;13.00;99.90
28177;DHT22;15461;41.652;9.378;2023-12-20T13:41:20;13.00;99.90
28177;DHT22;15461;41.652;9.378;2023-12-20T13:43:46;13.00;99.90
28177;DHT22;15461;41.652;9.378;2023-12-20T13:46:11;13.00;99.90
28177;DHT22;15461;41.652;9.378;2023-12-20T13:48:39;12.90;99.90
28177;DHT22;15461;41.652;9.378;2023-12-20T13:51:05;12.90;99.90
28177;DHT22;15461;41.652;9.378;2023-12-20T13:53:31;12.90;99.90
28177;DHT22;15461;41.652;9.378;2023-12-20T13:55:57;12.90;99.90
28177;DHT22;15461;41.652;9.378;2023-12-20T13:58:23;12.80;99.90
28177;DHT22;15461;41.652;9.378;2023-12-20T14:00:52;12.80;99.90
28177;DHT22;15461;41.652;9.378;2023-12-20T14:03:17;12.80;99.90
28177;DHT22;15461;41.652;9.378;2023-12-20T14:05:45;12.80;99.90
28177;DHT22;15461;41.652;9.378;2023-12-20T14:08:11;12.80;99.90
28177;DHT22;15461;41.652;9.378;2023-12-20T14:10:36;12.80;99.90
28177;DHT22;15461;41.652;9.378;2023-12-20T14:13:04;12.80;99.90
28177;DHT22;15461;41.652;9.378;2023-12-20T14:15:30;12.80;99.90
28177;DHT22;15461;41.652;9.378;2023-12-20T14:18:06;12.80;99.90
28177;DHT22;15461;41.652;9.378;2023-12-20T14:20:33;12.80;99.90
28177;DHT22;15461;41.652;9.378;2023-12-20T14:23:04;12.80;99.90
28177;DHT22;15461;41.652;9.378;2023-12-20T14:25:30;12.80;99.90
28177;DHT22;15461;41.652;9.378;2023-12-20T14:27:57;12.80;99.90
28177;DHT22;15461;41.652;9.378;2023-12-20T14:30:23;12.80;99.90
28177;DHT22;15461;41.652;9.378;2023-12-20T14:32:49;12.70;99.90
28177;DHT22;15461;41.652;9.378;2023-12-20T14:35:15;12.70;99.90
28177;DHT22;15461;41.652;9.378;2023-12-20T14:37:41;12.70;99.90
28177;DHT22;15461;41.652;9.378;2023-12-20T14:40:08;12.70;99.90
28177;DHT22;15461;41.652;9.378;2023-12-20T14:42:41;12.70;99.90
28177;DHT22;15461;41.652;9.378;2023-12-20T14:45:08;12.60;99.90
28177;DHT22;15461;41.652;9.378;2023-12-20T14:47:33;12.60;99.90
28177;DHT22;15461;41.652;9.378;2023-12-20T14:49:59;12.60;99.90
28177;DHT22;15461;41.652;9.378;2023-12-20T14:52:25;12.50;99.90
28177;DHT22;15461;41.652;9.378;2023-12-20T14:54:51;12.50;99.90
28177;DHT22;15461;41.652;9.378;2023-12-20T14:57:16;12.50;99.90
28177;DHT22;15461;41.652;9.378;2023-12-20T14:59:43;12.40;99.90
28177;DHT22;15461;41.652;9.378;2023-12-20T15:02:09;12.40;99.90
28177;DHT22;15461;41.652;9.378;2023-12-20T15:04:35;12.40;99.90
28177;DHT22;15461;41.652;9.378;2023-12-20T15:07:00;12.30;99.90
28177;DHT22;15461;41.652;9.378;2023-12-20T15:09:27;12.30;99.90
28177;DHT22;15461;41.652;9.378;2023-12-20T15:11:55;12.30;99.90
28177;DHT22;15461;41.652;9.378;2023-12-20T15:14:20;12.30;99.90
28177;DHT22;15461;41.652;9.378;2023-12-20T15:16:47;12.20;99.90
28177;DHT22;15461;41.652;9.378;2023-12-20T15:19:13;12.30;99.90
28177;DHT22;15461;41.652;9.378;2023-12-20T15:21:39;12.20;99.90
28177;DHT22;15461;41.652;9.378;2023-12-20T15:24:09;12.20;99.90
28177;DHT22;15461;41.652;9.378;2023-12-20T15:26:41;12.10;99.90
28177;DHT22;15461;41.652;9.378;2023-12-20T15:29:08;12.20;99.90
28177;DHT22;15461;41.652;9.378;2023-12-20T15:31:36;12.10;99.90
28177;DHT22;15461;41.652;9.378;2023-12-20T15:34:03;12.10;99.90
28177;DHT22;15461;41.652;9.378;2023-12-20T15:36:29;12.10;99.90
28177;DHT22;15461;41.652;9.378;2023-12-20T15:38:54;12.00;99.90
28177;DHT22;15461;41.652;9.378;2023-12-20T15:41:22;12.00;99.90